createdAt,value
2022-10-29T00:01:00.595Z,5.73
2022-10-29T00:02:02.017Z,5.33
2022-10-29T00:03:03.799Z,5.77
2022-10-29T00:04:05.530Z,5.90
2022-10-29T00:05:07.080Z,5.53
2022-10-29T00:06:10.547Z,5.50
2022-10-29T00:07:12.008Z,5.97
2022-10-29T00:08:13.482Z,5.60
2022-10-29T00:09:14.919Z,5.03
2022-10-29T00:10:16.657Z,5.70
2022-10-29T00:11:19.272Z,5.70
2022-10-29T00:12:20.763Z,5.47
2022-10-29T00:13:22.196Z,5.73
2022-10-29T00:14:23.584Z,5.47
2022-10-29T00:15:24.868Z,6.17
2022-10-29T00:16:28.109Z,5.60
2022-10-29T00:17:29.433Z,6.20
2022-10-29T00:18:30.774Z,5.70
2022-10-29T00:19:32.173Z,5.73
2022-10-29T00:20:33.498Z,5.47
2022-10-29T00:21:35.157Z,5.63
2022-10-29T00:22:36.531Z,6.03
2022-10-29T00:23:37.943Z,5.30
2022-10-29T00:24:39.392Z,5.90
2022-10-29T00:25:40.753Z,6.10
2022-10-29T00:26:42.216Z,5.53
2022-10-29T00:27:43.624Z,5.53
2022-10-29T00:28:45.380Z,6.00
2022-10-29T00:29:46.746Z,5.70
2022-10-29T00:30:48.085Z,6.20
2022-10-29T00:31:50.759Z,5.53
2022-10-29T00:32:52.424Z,5.93
2022-10-29T00:33:54.972Z,6.43
2022-10-29T00:34:56.273Z,6.17
2022-10-29T00:35:58.893Z,6.07
2022-10-29T00:37:00.236Z,6.33
2022-10-29T00:38:01.575Z,6.20
2022-10-29T00:39:02.921Z,6.10
2022-10-29T00:40:04.633Z,6.07
2022-10-29T00:41:07.108Z,5.73
2022-10-29T00:42:16.065Z,6.00
2022-10-29T00:43:19.280Z,6.10
2022-10-29T00:44:35.567Z,6.20
2022-10-29T00:45:39.220Z,5.67
2022-10-29T00:46:45.119Z,6.20
2022-10-29T00:47:49.474Z,6.07
2022-10-29T00:48:52.337Z,5.60
2022-10-29T00:49:55.851Z,5.93
2022-10-29T00:50:58.707Z,5.80
2022-10-29T00:52:01.145Z,5.73
2022-10-29T00:53:02.545Z,5.20
2022-10-29T00:54:05.166Z,5.67
2022-10-29T00:55:08.531Z,6.03
2022-10-29T00:56:10.333Z,5.90
2022-10-29T00:57:18.522Z,6.10
2022-10-29T00:58:20.408Z,5.00
2022-10-29T00:59:21.835Z,5.80
2022-10-29T01:00:23.325Z,5.67
2022-10-29T01:01:25.095Z,6.30
2022-10-29T01:02:27.373Z,5.87
2022-10-29T01:03:28.861Z,5.90
2022-10-29T01:04:30.637Z,6.27
2022-10-29T01:05:33.318Z,5.70
2022-10-29T01:06:34.811Z,6.00
2022-10-29T01:07:36.204Z,6.27
2022-10-29T01:08:37.610Z,6.40
2022-10-29T01:09:39.241Z,5.80
2022-10-29T01:10:58.542Z,6.17
2022-10-29T01:11:59.957Z,5.90
2022-10-29T01:13:07.935Z,6.27
2022-10-29T01:14:28.321Z,5.90
2022-10-29T01:15:56.127Z,6.20
2022-10-29T01:17:05.550Z,6.10
2022-10-29T01:18:25.928Z,5.97
2022-10-29T01:19:27.332Z,5.67
2022-10-29T01:20:43.971Z,5.80
2022-10-29T01:21:46.948Z,5.60
2022-10-29T01:23:06.915Z,5.90
2022-10-29T01:24:23.536Z,5.27
2022-10-29T01:25:27.920Z,6.07
2022-10-29T01:26:44.472Z,5.30
2022-10-29T01:27:51.471Z,6.20
2022-10-29T01:29:11.611Z,6.20
2022-10-29T01:30:33.191Z,5.80
2022-10-29T01:31:37.404Z,6.00
2022-10-29T01:32:41.504Z,5.33
2022-10-29T01:33:57.786Z,5.53
2022-10-29T01:35:13.098Z,6.40
2022-10-29T01:36:23.859Z,5.90
2022-10-29T01:37:25.147Z,6.20
2022-10-29T01:38:33.312Z,6.07
2022-10-29T01:39:40.705Z,5.77
2022-10-29T01:41:05.881Z,6.17
2022-10-29T01:42:36.499Z,5.70
2022-10-29T01:43:37.777Z,6.90
2022-10-29T01:45:02.285Z,6.63
2022-10-29T01:46:09.904Z,6.47
2022-10-29T01:47:15.950Z,5.47
2022-10-29T01:48:19.669Z,6.13
2022-10-29T01:49:23.410Z,6.17
2022-10-29T01:50:25.010Z,6.10
2022-10-29T01:51:28.540Z,5.77
2022-10-29T01:52:32.336Z,5.00
2022-10-29T01:53:36.220Z,6.30
2022-10-29T01:54:44.881Z,5.47
2022-10-29T01:55:46.229Z,5.50
2022-10-29T01:56:54.106Z,5.63
2022-10-29T01:57:55.915Z,6.20
2022-10-29T01:58:59.410Z,5.93
2022-10-29T02:00:08.919Z,6.23
2022-10-29T02:01:23.842Z,5.93
2022-10-29T02:02:34.045Z,5.60
2022-10-29T02:03:52.505Z,6.20
2022-10-29T02:04:56.615Z,5.90
2022-10-29T02:05:57.917Z,6.47
2022-10-29T02:07:08.465Z,5.77
2022-10-29T02:08:17.988Z,5.67
2022-10-29T02:09:27.252Z,5.33
2022-10-29T02:10:28.639Z,5.80
2022-10-29T02:11:36.248Z,5.83
2022-10-29T02:12:46.502Z,6.10
2022-10-29T02:13:51.819Z,6.20
2022-10-29T02:14:57.105Z,6.03
2022-10-29T02:15:58.844Z,5.40
2022-10-29T02:17:00.313Z,5.80
2022-10-29T02:18:02.646Z,5.70
2022-10-29T02:19:05.122Z,5.83
2022-10-29T02:20:07.891Z,5.27
2022-10-29T02:21:09.399Z,6.10
2022-10-29T02:22:10.791Z,5.60
2022-10-29T02:23:12.671Z,5.90
2022-10-29T02:24:14.011Z,5.70
2022-10-29T02:25:15.494Z,5.30
2022-10-29T02:26:16.949Z,6.50
2022-10-29T02:27:18.420Z,5.47
2022-10-29T02:28:22.609Z,5.70
2022-10-29T02:29:24.077Z,6.23
2022-10-29T02:30:25.363Z,5.50
2022-10-29T02:31:26.673Z,5.73
2022-10-29T02:32:28.006Z,5.57
2022-10-29T02:33:29.459Z,6.17
2022-10-29T02:34:30.822Z,6.00
2022-10-29T02:35:32.101Z,5.50
2022-10-29T02:36:33.468Z,5.20
2022-10-29T02:37:34.783Z,5.57
2022-10-29T02:38:36.400Z,5.33
2022-10-29T02:39:41.061Z,5.30
2022-10-29T02:40:42.385Z,5.33
2022-10-29T02:41:43.817Z,6.03
2022-10-29T02:42:45.126Z,5.67
2022-10-29T02:43:46.538Z,5.40
2022-10-29T02:44:47.887Z,5.70
2022-10-29T02:45:50.824Z,6.50
2022-10-29T02:46:52.172Z,6.23
2022-10-29T02:47:53.763Z,5.70
2022-10-29T02:48:55.319Z,5.70
2022-10-29T02:49:56.616Z,6.17
2022-10-29T02:50:57.959Z,6.07
2022-10-29T02:51:59.316Z,5.73
2022-10-29T02:53:00.690Z,5.93
2022-10-29T02:54:01.994Z,5.40
2022-10-29T02:55:03.392Z,5.03
2022-10-29T02:56:05.457Z,5.70
2022-10-29T02:57:06.960Z,6.13
2022-10-29T02:58:08.372Z,5.23
2022-10-29T02:59:11.857Z,5.30
2022-10-29T03:00:14.129Z,5.40
2022-10-29T03:01:15.490Z,5.87
2022-10-29T03:02:17.012Z,6.03
2022-10-29T03:03:18.500Z,5.47
2022-10-29T03:04:19.782Z,5.47
2022-10-29T03:05:21.116Z,5.10
2022-10-29T03:06:22.499Z,5.63
2022-10-29T03:07:23.852Z,6.10
2022-10-29T03:08:25.201Z,6.03
2022-10-29T03:09:26.625Z,5.77
2022-10-29T03:10:27.941Z,6.20
2022-10-29T03:11:29.303Z,6.47
2022-10-29T03:12:30.618Z,5.70
2022-10-29T03:13:32.022Z,5.90
2022-10-29T03:14:33.371Z,5.23
2022-10-29T03:15:36.239Z,5.73
2022-10-29T03:16:37.648Z,5.63
2022-10-29T03:17:40.280Z,5.63
2022-10-29T03:18:41.677Z,5.80
2022-10-29T03:19:43.022Z,6.07
2022-10-29T03:20:45.467Z,5.50
2022-10-29T03:21:46.893Z,5.27
2022-10-29T03:22:48.431Z,5.97
2022-10-29T03:23:50.151Z,5.83
2022-10-29T03:24:51.528Z,5.50
2022-10-29T03:25:55.876Z,5.70
2022-10-29T03:26:57.690Z,5.53
2022-10-29T03:27:59.194Z,6.00
2022-10-29T03:29:03.085Z,5.40
2022-10-29T03:30:04.623Z,5.53
2022-10-29T03:31:06.005Z,5.60
2022-10-29T03:32:07.402Z,6.10
2022-10-29T03:33:08.877Z,5.23
2022-10-29T03:34:10.402Z,5.80
2022-10-29T03:35:13.941Z,5.60
2022-10-29T03:36:15.280Z,5.33
2022-10-29T03:37:16.590Z,5.60
2022-10-29T03:38:17.935Z,5.57
2022-10-29T03:39:19.376Z,5.77
2022-10-29T03:40:20.744Z,6.00
2022-10-29T03:41:22.068Z,5.57
2022-10-29T03:42:23.360Z,5.50
2022-10-29T03:43:25.105Z,5.37
2022-10-29T03:44:26.401Z,5.53
2022-10-29T03:45:27.758Z,5.30
2022-10-29T03:46:29.141Z,5.50
2022-10-29T03:47:31.721Z,5.63
2022-10-29T03:48:33.159Z,5.50
2022-10-29T03:49:34.498Z,5.67
2022-10-29T03:50:35.822Z,5.57
2022-10-29T03:51:37.165Z,5.53
2022-10-29T03:52:38.642Z,5.43
2022-10-29T03:53:39.936Z,5.30
2022-10-29T03:54:41.263Z,5.43
2022-10-29T03:55:42.630Z,6.00
2022-10-29T03:56:43.975Z,5.90
2022-10-29T03:57:45.306Z,5.23
2022-10-29T03:58:46.597Z,5.83
2022-10-29T03:59:51.549Z,5.87
2022-10-29T04:00:58.087Z,4.97
2022-10-29T04:01:59.494Z,5.60
2022-10-29T04:03:01.300Z,5.80
2022-10-29T04:04:02.845Z,5.07
2022-10-29T04:05:04.299Z,5.80
2022-10-29T04:06:10.169Z,5.60
2022-10-29T04:07:12.175Z,5.10
2022-10-29T04:08:13.483Z,6.07
2022-10-29T04:09:14.865Z,5.20
2022-10-29T04:10:16.481Z,5.40
2022-10-29T04:11:17.978Z,5.73
2022-10-29T04:12:19.298Z,5.37
2022-10-29T04:13:20.933Z,6.07
2022-10-29T04:14:22.253Z,5.20
2022-10-29T04:15:23.584Z,5.43
2022-10-29T04:16:25.143Z,5.53
2022-10-29T04:17:26.478Z,5.83
2022-10-29T04:18:27.795Z,5.40
2022-10-29T04:19:29.160Z,5.43
2022-10-29T04:20:47.728Z,5.40
2022-10-29T04:27:31.427Z,5.90
2022-10-29T04:28:43.366Z,5.37
2022-10-29T04:29:45.224Z,5.47
2022-10-29T04:30:46.547Z,5.37
2022-10-29T04:31:47.997Z,5.63
2022-10-29T04:32:49.396Z,5.03
2022-10-29T04:33:52.627Z,5.00
2022-10-29T04:34:54.024Z,5.87
2022-10-29T04:35:55.463Z,5.80
2022-10-29T04:36:56.857Z,5.73
2022-10-29T04:37:58.332Z,5.60
2022-10-29T04:38:59.630Z,5.30
2022-10-29T04:40:03.421Z,5.77
2022-10-29T04:41:04.843Z,5.50
2022-10-29T04:42:06.146Z,5.97
2022-10-29T04:43:07.455Z,6.00
2022-10-29T04:44:08.870Z,5.80
2022-10-29T04:45:10.233Z,6.33
2022-10-29T04:46:11.677Z,5.73
2022-10-29T04:47:13.178Z,5.47
2022-10-29T04:48:14.543Z,5.27
2022-10-29T04:49:16.009Z,5.60
2022-10-29T04:50:17.447Z,5.47
2022-10-29T04:51:19.677Z,5.10
2022-10-29T04:52:23.609Z,5.57
2022-10-29T04:53:24.905Z,6.23
2022-10-29T04:54:26.282Z,5.30
2022-10-29T04:55:28.108Z,5.00
2022-10-29T04:56:32.349Z,6.20
2022-10-29T04:57:33.883Z,5.20
2022-10-29T04:58:35.204Z,5.73
2022-10-29T04:59:36.672Z,5.80
2022-10-29T05:00:38.020Z,5.57
2022-10-29T05:01:44.282Z,5.77
2022-10-29T05:02:49.867Z,5.83
2022-10-29T05:03:55.517Z,5.80
2022-10-29T05:05:00.907Z,5.83
2022-10-29T05:06:02.949Z,5.50
2022-10-29T05:07:04.366Z,5.60
2022-10-29T05:08:06.267Z,5.70
2022-10-29T05:09:07.643Z,5.57
2022-10-29T05:10:09.611Z,5.53
2022-10-29T05:11:11.017Z,5.57
2022-10-29T05:12:12.408Z,5.43
2022-10-29T05:13:13.789Z,5.90
2022-10-29T05:14:15.077Z,5.20
2022-10-29T05:15:16.409Z,5.00
2022-10-29T05:16:17.946Z,5.70
2022-10-29T05:17:19.588Z,5.30
2022-10-29T05:18:21.010Z,5.50
2022-10-29T05:19:22.413Z,5.50
2022-10-29T05:20:24.697Z,5.73
2022-10-29T05:21:26.176Z,5.07
2022-10-29T05:22:27.584Z,4.93
2022-10-29T05:23:29.006Z,5.57
2022-10-29T05:24:32.694Z,5.50
2022-10-29T05:25:35.319Z,5.23
2022-10-29T05:26:36.630Z,5.33
2022-10-29T05:27:37.926Z,6.37
2022-10-29T05:28:39.261Z,5.50
2022-10-29T05:29:40.721Z,5.73
2022-10-29T05:30:43.862Z,5.27
2022-10-29T05:31:45.244Z,5.40
2022-10-29T05:32:46.662Z,5.03
2022-10-29T05:33:49.948Z,5.13
2022-10-29T05:34:53.868Z,5.83
2022-10-29T05:35:55.300Z,5.10
2022-10-29T05:36:56.747Z,5.83
2022-10-29T05:37:58.234Z,5.73
2022-10-29T05:38:59.706Z,5.47
2022-10-29T05:40:01.137Z,5.87
2022-10-29T05:41:02.663Z,5.27
2022-10-29T05:42:04.460Z,5.20
2022-10-29T05:43:05.919Z,5.77
2022-10-29T05:44:07.272Z,6.03
2022-10-29T05:45:08.976Z,5.10
2022-10-29T05:46:10.314Z,5.80
2022-10-29T05:47:11.670Z,5.40
2022-10-29T05:49:14.372Z,5.47
2022-10-29T05:50:15.694Z,5.17
2022-10-29T05:51:17.015Z,5.70
2022-10-29T05:52:18.302Z,5.37
2022-10-29T05:53:19.854Z,5.07
2022-10-29T05:54:21.737Z,5.23
2022-10-29T05:55:23.103Z,5.43
2022-10-29T05:56:24.482Z,6.87
2022-10-29T05:57:25.823Z,7.07
2022-10-29T05:58:27.199Z,7.40
2022-10-29T05:59:32.675Z,7.33
2022-10-29T06:00:37.115Z,6.60
2022-10-29T06:01:38.521Z,5.50
2022-10-29T06:02:42.750Z,5.80
2022-10-29T06:03:44.278Z,5.90
2022-10-29T06:04:45.749Z,5.50
2022-10-29T06:05:47.678Z,5.67
2022-10-29T06:06:49.206Z,5.87
2022-10-29T06:07:57.464Z,5.70
2022-10-29T06:08:59.223Z,6.03
2022-10-29T06:10:00.528Z,6.10
2022-10-29T06:11:02.827Z,5.67
2022-10-29T06:12:04.309Z,6.00
2022-10-29T06:13:12.356Z,6.40
2022-10-29T06:14:13.688Z,5.03
2022-10-29T06:15:15.065Z,5.80
2022-10-29T06:16:16.416Z,6.17
2022-10-29T06:17:17.774Z,5.97
2022-10-29T06:18:19.171Z,5.30
2022-10-29T06:19:20.683Z,6.40
2022-10-29T06:20:22.086Z,5.70
2022-10-29T06:21:23.438Z,5.77
2022-10-29T06:22:24.707Z,5.47
2022-10-29T06:23:26.659Z,5.93
2022-10-29T06:24:28.061Z,6.50
2022-10-29T06:25:29.501Z,6.33
2022-10-29T06:26:30.849Z,5.23
2022-10-29T06:27:32.176Z,6.00
2022-10-29T06:28:35.040Z,5.77
2022-10-29T06:29:36.497Z,5.40
2022-10-29T06:30:38.011Z,5.60
2022-10-29T06:31:39.326Z,5.53
2022-10-29T06:32:40.637Z,5.37
2022-10-29T06:33:41.962Z,5.50
2022-10-29T06:34:43.301Z,5.53
2022-10-29T06:35:45.096Z,5.10
2022-10-29T06:36:46.415Z,5.33
2022-10-29T06:37:47.782Z,5.90
2022-10-29T06:38:49.144Z,5.97
2022-10-29T06:39:50.480Z,5.60
2022-10-29T06:40:53.650Z,5.23
2022-10-29T06:41:54.996Z,5.50
2022-10-29T06:43:03.377Z,5.30
2022-10-29T06:44:04.806Z,5.70
2022-10-29T06:45:06.436Z,5.40
2022-10-29T06:46:07.826Z,5.80
2022-10-29T06:47:09.114Z,5.70
2022-10-29T06:48:10.485Z,5.50
2022-10-29T06:49:11.889Z,5.17
2022-10-29T06:50:13.484Z,6.17
2022-10-29T06:51:14.834Z,5.93
2022-10-29T06:52:16.238Z,5.50
2022-10-29T06:53:17.961Z,5.57
2022-10-29T06:54:19.315Z,5.70
2022-10-29T06:55:20.647Z,10.27
2022-10-29T06:56:21.991Z,10.53
2022-10-29T06:57:24.760Z,7.80
2022-10-29T06:58:26.083Z,6.90
2022-10-29T06:59:27.512Z,5.50
2022-10-29T07:00:29.851Z,5.67
2022-10-29T07:01:33.149Z,5.50
2022-10-29T07:02:34.619Z,6.70
2022-10-29T07:03:36.028Z,5.30
2022-10-29T07:04:37.471Z,5.00
2022-10-29T07:05:38.820Z,6.33
2022-10-29T07:06:40.210Z,5.57
2022-10-29T07:07:41.532Z,5.47
2022-10-29T07:08:42.850Z,6.37
2022-10-29T07:09:44.212Z,10.40
2022-10-29T07:10:45.719Z,7.20
2022-10-29T07:11:47.839Z,6.77
2022-10-29T07:12:49.174Z,6.80
2022-10-29T07:13:50.516Z,6.50
2022-10-29T07:14:51.905Z,5.70
2022-10-29T07:15:53.287Z,5.80
2022-10-29T07:16:54.739Z,5.60
2022-10-29T07:18:06.157Z,5.33
2022-10-29T07:19:08.024Z,5.53
2022-10-29T07:20:09.844Z,5.10
2022-10-29T07:21:11.292Z,5.63
2022-10-29T07:22:12.614Z,5.23
2022-10-29T07:23:14.329Z,6.07
2022-10-29T07:24:17.766Z,5.10
2022-10-29T07:25:19.529Z,5.63
2022-10-29T07:26:20.898Z,5.33
2022-10-29T07:27:22.728Z,5.50
2022-10-29T07:28:25.472Z,5.40
2022-10-29T07:29:27.187Z,5.33
2022-10-29T07:30:28.546Z,5.37
2022-10-29T07:31:30.644Z,5.80
2022-10-29T07:32:32.151Z,5.73
2022-10-29T07:33:33.533Z,5.20
2022-10-29T07:34:35.050Z,5.43
2022-10-29T07:35:36.537Z,5.23
2022-10-29T07:36:37.966Z,5.00
2022-10-29T07:37:39.391Z,5.50
2022-10-29T07:38:40.828Z,5.70
2022-10-29T07:39:42.343Z,6.20
2022-10-29T07:40:48.031Z,6.67
2022-10-29T07:41:49.429Z,6.10
2022-10-29T07:42:53.978Z,5.93
2022-10-29T07:43:55.487Z,5.77
2022-10-29T07:44:56.905Z,5.97
2022-10-29T07:45:58.287Z,6.10
2022-10-29T07:47:02.258Z,6.03
2022-10-29T07:48:04.847Z,6.47
2022-10-29T07:49:06.426Z,6.50
2022-10-29T07:50:08.014Z,5.93
2022-10-29T07:51:09.392Z,5.87
2022-10-29T07:52:10.787Z,5.57
2022-10-29T07:53:12.263Z,5.73
2022-10-29T07:54:14.786Z,5.80
2022-10-29T07:55:16.394Z,5.53
2022-10-29T07:56:17.850Z,5.53
2022-10-29T07:57:19.333Z,5.20
2022-10-29T07:58:21.246Z,5.33
2022-10-29T07:59:22.652Z,5.33
2022-10-29T08:00:25.204Z,5.63
2022-10-29T08:01:26.695Z,5.20
2022-10-29T08:02:28.188Z,5.73
2022-10-29T08:03:29.564Z,5.93
2022-10-29T08:04:30.906Z,5.30
2022-10-29T08:05:32.672Z,6.20
2022-10-29T08:06:34.129Z,5.63
2022-10-29T08:07:35.448Z,4.90
2022-10-29T08:08:36.801Z,5.07
2022-10-29T08:09:38.175Z,5.13
2022-10-29T08:10:39.544Z,5.30
2022-10-29T08:11:40.999Z,5.03
2022-10-29T08:12:52.369Z,5.37
2022-10-29T08:13:53.699Z,5.30
2022-10-29T08:14:55.216Z,5.80
2022-10-29T08:15:56.649Z,4.90
2022-10-29T08:16:57.951Z,4.90
2022-10-29T08:17:59.434Z,5.13
2022-10-29T08:19:01.104Z,5.50
2022-10-29T08:20:02.411Z,5.20
2022-10-29T08:21:05.038Z,4.73
2022-10-29T08:22:06.416Z,5.00
2022-10-29T08:23:08.096Z,5.13
2022-10-29T08:24:10.234Z,5.20
2022-10-29T08:25:12.390Z,5.57
2022-10-29T08:26:13.795Z,5.37
2022-10-29T08:27:15.132Z,5.00
2022-10-29T08:28:16.500Z,5.10
2022-10-29T08:29:17.943Z,4.70
2022-10-29T08:30:19.271Z,4.90
2022-10-29T08:31:20.650Z,4.93
2022-10-29T08:32:22.058Z,5.27
2022-10-29T08:33:23.535Z,4.93
2022-10-29T08:34:24.961Z,4.90
2022-10-29T08:35:26.459Z,4.70
2022-10-29T08:36:27.757Z,4.37
2022-10-29T08:37:29.171Z,4.70
2022-10-29T08:38:30.524Z,4.93
2022-10-29T08:39:31.881Z,4.90
2022-10-29T08:40:39.222Z,5.03
2022-10-29T08:41:49.228Z,4.90
2022-10-29T08:42:59.691Z,4.53
2022-10-29T08:44:19.867Z,4.80
2022-10-29T08:45:41.883Z,4.70
2022-10-29T08:46:47.446Z,4.47
2022-10-29T08:47:55.832Z,5.20
2022-10-29T08:49:00.548Z,4.70
2022-10-29T08:50:20.414Z,4.83
2022-10-29T08:51:31.073Z,5.00
2022-10-29T08:52:37.225Z,5.07
2022-10-29T08:53:40.964Z,4.60
2022-10-29T08:54:44.030Z,4.47
2022-10-29T08:55:46.366Z,4.87
2022-10-29T08:56:50.277Z,4.90
2022-10-29T08:57:56.650Z,4.50
2022-10-29T08:59:15.055Z,4.70
2022-10-29T09:00:19.209Z,4.90
2022-10-29T09:01:21.802Z,4.83
2022-10-29T09:02:23.461Z,5.10
2022-10-29T09:03:26.980Z,4.97
2022-10-29T09:04:35.549Z,5.43
2022-10-29T09:05:49.169Z,6.67
2022-10-29T09:06:56.654Z,6.47
2022-10-29T09:08:24.370Z,7.27
2022-10-29T09:09:31.555Z,4.43
2022-10-29T09:10:39.023Z,4.83
2022-10-29T09:11:52.668Z,4.50
2022-10-29T09:13:08.482Z,4.70
2022-10-29T09:14:09.777Z,4.37
2022-10-29T09:15:11.130Z,4.50
2022-10-29T09:16:12.457Z,4.90
2022-10-29T09:17:16.560Z,4.00
2022-10-29T09:18:20.447Z,4.13
2022-10-29T09:19:32.904Z,4.50
2022-10-29T09:20:34.253Z,4.20
2022-10-29T09:21:44.927Z,4.70
2022-10-29T09:22:47.472Z,4.30
2022-10-29T09:23:58.535Z,4.37
2022-10-29T09:25:06.247Z,4.43
2022-10-29T09:26:14.515Z,4.30
2022-10-29T09:27:34.683Z,4.43
2022-10-29T09:28:42.180Z,4.40
2022-10-29T09:29:50.436Z,3.80
2022-10-29T09:31:17.936Z,4.57
2022-10-29T09:32:45.477Z,4.78
2022-10-29T09:33:48.148Z,5.63
2022-10-29T09:34:51.448Z,4.97
2022-10-29T09:35:53.904Z,4.38
2022-10-29T09:36:55.941Z,4.30
2022-10-29T09:38:01.334Z,4.57
2022-10-29T09:39:04.163Z,4.63
2022-10-29T09:40:06.869Z,4.57
2022-10-29T09:41:10.369Z,4.40
2022-10-29T09:42:26.461Z,4.90
2022-10-29T09:43:46.036Z,4.20
2022-10-29T09:44:55.798Z,4.60
2022-10-29T09:46:00.803Z,6.30
2022-10-29T09:47:12.133Z,4.20
2022-10-29T09:48:27.315Z,4.47
2022-10-29T09:49:44.232Z,5.73
2022-10-29T09:51:02.405Z,4.97
2022-10-29T09:52:10.098Z,4.23
2022-10-29T09:53:11.494Z,4.63
2022-10-29T09:54:13.084Z,4.80
2022-10-29T09:55:20.122Z,4.20
2022-10-29T09:56:21.554Z,5.20
2022-10-29T09:57:24.459Z,4.57
2022-10-29T09:58:26.957Z,4.07
2022-10-29T09:59:40.432Z,4.80
2022-10-29T10:00:41.932Z,4.55
2022-10-29T10:01:43.382Z,4.53
2022-10-29T10:02:51.861Z,4.57
2022-10-29T10:03:55.408Z,5.00
2022-10-29T10:05:01.802Z,3.97
2022-10-29T10:06:09.768Z,4.38
2022-10-29T10:07:12.125Z,4.75
2022-10-29T10:08:14.128Z,4.53
2022-10-29T10:09:15.416Z,4.43
2022-10-29T10:10:23.631Z,10.10
2022-10-29T10:11:25.327Z,6.05
2022-10-29T10:12:27.992Z,4.30
2022-10-29T10:13:31.040Z,3.83
2022-10-29T10:14:32.393Z,4.38
2022-10-29T10:15:35.560Z,4.63
2022-10-29T10:16:37.564Z,4.20
2022-10-29T10:17:57.721Z,4.40
2022-10-29T10:18:59.216Z,4.10
2022-10-29T10:20:00.506Z,3.80
2022-10-29T10:21:04.530Z,4.47
2022-10-29T10:22:05.918Z,4.30
2022-10-29T10:23:22.626Z,4.32
2022-10-29T10:24:31.626Z,4.43
2022-10-29T10:25:37.758Z,4.07
2022-10-29T10:26:42.999Z,3.97
2022-10-29T10:27:44.425Z,4.10
2022-10-29T10:28:45.726Z,4.05
2022-10-29T10:30:05.159Z,4.10
2022-10-29T10:31:06.573Z,4.22
2022-10-29T10:32:08.833Z,3.75
2022-10-29T10:34:24.182Z,4.03
2022-10-29T10:35:27.259Z,4.10
2022-10-29T10:36:29.237Z,4.20
2022-10-29T10:37:31.553Z,3.63
2022-10-29T10:38:43.748Z,4.18
2022-10-29T10:39:46.891Z,4.07
2022-10-29T10:40:54.553Z,4.47
2022-10-29T10:41:57.609Z,4.03
2022-10-29T10:42:58.950Z,4.05
2022-10-29T10:44:01.821Z,3.35
2022-10-29T10:45:05.696Z,3.95
2022-10-29T10:46:12.590Z,4.43
2022-10-29T10:47:14.198Z,3.92
2022-10-29T10:48:16.290Z,3.65
2022-10-29T10:49:18.697Z,4.15
2022-10-29T10:50:19.995Z,3.97
2022-10-29T10:51:25.936Z,4.35
2022-10-29T10:52:28.948Z,3.58
2022-10-29T10:53:30.353Z,3.88
2022-10-29T10:54:31.737Z,3.88
2022-10-29T10:55:33.087Z,3.42
2022-10-29T10:56:51.298Z,3.75
2022-10-29T10:57:57.782Z,3.67
2022-10-29T10:59:03.011Z,4.32
2022-10-29T11:00:06.464Z,3.67
2022-10-29T11:01:16.317Z,3.90
2022-10-29T11:02:23.387Z,3.90
2022-10-29T11:03:35.127Z,3.75
2022-10-29T11:04:38.962Z,3.72
2022-10-29T11:05:47.239Z,4.05
2022-10-29T11:06:50.011Z,3.67
2022-10-29T11:08:01.336Z,3.92
2022-10-29T11:09:15.823Z,4.15
2022-10-29T11:10:18.595Z,4.25
2022-10-29T11:11:22.779Z,3.88
2022-10-29T11:12:33.189Z,3.45
2022-10-29T11:13:34.558Z,4.32
2022-10-29T11:14:42.911Z,4.20
2022-10-29T11:15:50.378Z,3.80
2022-10-29T11:16:56.281Z,3.97
2022-10-29T11:18:04.456Z,3.13
2022-10-29T11:19:12.775Z,4.28
2022-10-29T11:20:18.049Z,4.18
2022-10-29T11:21:22.196Z,3.85
2022-10-29T11:22:29.454Z,3.92
2022-10-29T11:23:33.858Z,3.88
2022-10-29T11:24:51.155Z,4.07
2022-10-29T11:26:04.695Z,3.88
2022-10-29T11:27:12.020Z,4.35
2022-10-29T11:28:22.708Z,3.60
2022-10-29T11:29:38.751Z,4.35
2022-10-29T11:30:43.714Z,4.38
2022-10-29T11:31:47.985Z,4.03
2022-10-29T11:32:57.383Z,3.63
2022-10-29T11:34:05.139Z,4.20
2022-10-29T11:35:13.787Z,4.25
2022-10-29T11:36:17.635Z,4.18
2022-10-29T11:37:18.984Z,4.45
2022-10-29T11:38:20.340Z,4.05
2022-10-29T11:39:25.166Z,4.38
2022-10-29T11:40:41.544Z,4.20
2022-10-29T11:41:48.997Z,4.40
2022-10-29T11:42:50.429Z,3.97
2022-10-29T11:43:51.846Z,4.28
2022-10-29T11:44:53.487Z,4.47
2022-10-29T11:46:02.024Z,4.18
2022-10-29T11:47:09.078Z,4.95
2022-10-29T11:48:16.480Z,4.68
2022-10-29T11:49:24.776Z,4.35
2022-10-29T11:50:46.349Z,4.22
2022-10-29T11:51:56.887Z,4.35
2022-10-29T11:53:17.076Z,4.20
2022-10-29T11:54:27.458Z,4.55
2022-10-29T11:55:42.834Z,3.75
2022-10-29T11:56:50.015Z,4.38
2022-10-29T11:58:00.599Z,4.65
2022-10-29T11:59:20.729Z,4.13
2022-10-29T12:00:23.820Z,4.28
2022-10-29T12:01:25.271Z,4.38
2022-10-29T12:02:43.283Z,3.90
2022-10-29T12:03:48.983Z,3.78
2022-10-29T12:04:57.551Z,3.95
2022-10-29T12:06:08.824Z,4.43
2022-10-29T12:07:28.931Z,5.55
2022-10-29T12:08:30.591Z,4.07
2022-10-29T12:10:01.331Z,4.00
2022-10-29T12:11:22.112Z,4.18
2022-10-29T12:12:35.121Z,4.28
2022-10-29T12:13:36.813Z,3.65
2022-10-29T12:14:56.981Z,4.00
2022-10-29T12:16:15.099Z,4.47
2022-10-29T12:17:27.359Z,3.97
2022-10-29T12:18:49.127Z,3.92
2022-10-29T12:19:56.697Z,4.47
2022-10-29T12:21:05.176Z,4.25
2022-10-29T12:22:24.740Z,4.43
2022-10-29T12:23:35.549Z,4.65
2022-10-29T12:24:50.221Z,4.50
2022-10-29T12:26:05.689Z,4.35
2022-10-29T12:27:15.329Z,4.07
2022-10-29T12:28:29.667Z,4.32
2022-10-29T12:29:53.436Z,4.75
2022-10-29T12:30:58.047Z,4.38
2022-10-29T12:32:22.965Z,3.75
2022-10-29T12:33:38.408Z,3.72
2022-10-29T12:35:03.806Z,3.97
2022-10-29T12:36:18.323Z,4.20
2022-10-29T12:37:32.193Z,3.85
2022-10-29T12:38:56.441Z,4.65
2022-10-29T12:40:33.914Z,3.88
2022-10-29T12:41:44.201Z,3.92
2022-10-29T12:42:48.381Z,3.70
2022-10-29T12:43:57.042Z,4.60
2022-10-29T12:45:14.346Z,3.85
2022-10-29T12:46:22.509Z,3.83
2022-10-29T12:47:26.534Z,5.03
2022-10-29T12:48:44.858Z,4.38
2022-10-29T12:49:56.078Z,4.82
2022-10-29T12:51:06.850Z,4.75
2022-10-29T12:52:12.775Z,4.10
2022-10-29T12:53:14.860Z,4.03
2022-10-29T12:54:41.081Z,4.03
2022-10-29T12:55:44.446Z,4.20
2022-10-29T12:56:49.400Z,3.90
2022-10-29T12:57:52.361Z,3.80
2022-10-29T12:58:59.727Z,4.65
2022-10-29T13:00:19.906Z,3.83
2022-10-29T13:01:50.070Z,4.00
2022-10-29T13:02:51.129Z,4.43
2022-10-29T13:03:55.711Z,4.20
2022-10-29T13:05:09.238Z,4.75
2022-10-29T13:06:31.100Z,3.75
2022-10-29T13:07:33.860Z,3.92
2022-10-29T13:08:36.505Z,4.15
2022-10-29T13:09:44.305Z,3.78
2022-10-29T13:10:51.001Z,4.10
2022-10-29T13:11:52.822Z,4.43
2022-10-29T13:13:06.930Z,3.53
2022-10-29T13:14:08.594Z,3.50
2022-10-29T13:15:15.627Z,5.63
2022-10-29T13:16:20.758Z,4.20
2022-10-29T13:17:31.020Z,4.50
2022-10-29T13:18:48.767Z,4.47
2022-10-29T13:19:55.780Z,4.35
2022-10-29T13:20:58.234Z,4.05
2022-10-29T13:22:01.689Z,3.65
2022-10-29T13:23:10.556Z,3.97
2022-10-29T13:24:16.855Z,4.30
2022-10-29T13:25:32.295Z,3.58
2022-10-29T13:26:52.581Z,3.85
2022-10-29T13:27:57.614Z,4.13
2022-10-29T13:29:04.777Z,3.40
2022-10-29T13:30:15.554Z,4.55
2022-10-29T13:31:18.073Z,4.10
2022-10-29T13:32:29.674Z,4.30
2022-10-29T13:33:33.726Z,3.92
2022-10-29T13:34:55.080Z,4.22
2022-10-29T13:35:59.985Z,3.40
2022-10-29T13:37:23.265Z,4.28
2022-10-29T13:38:58.659Z,4.93
2022-10-29T13:40:22.758Z,4.45
2022-10-29T13:41:24.440Z,4.20
2022-10-29T13:42:26.100Z,3.97
2022-10-29T13:43:28.524Z,4.85
2022-10-29T13:44:32.064Z,4.00
2022-10-29T13:45:37.935Z,4.15
2022-10-29T13:46:45.968Z,4.63
2022-10-29T13:47:49.140Z,5.22
2022-10-29T13:48:52.510Z,4.55
2022-10-29T13:49:56.332Z,4.00
2022-10-29T13:50:59.134Z,4.07
2022-10-29T13:52:03.193Z,3.80
2022-10-29T13:53:13.067Z,3.70
2022-10-29T13:54:30.987Z,3.50
2022-10-29T13:55:33.384Z,3.63
2022-10-29T13:56:37.827Z,3.63
2022-10-29T13:57:59.901Z,4.00
2022-10-29T13:59:04.607Z,3.58
2022-10-29T14:00:27.495Z,3.45
2022-10-29T14:01:38.311Z,3.17
2022-10-29T14:02:46.198Z,3.60
2022-10-29T14:04:19.946Z,3.40
2022-10-29T14:05:39.795Z,4.07
2022-10-29T14:06:48.481Z,3.25
2022-10-29T14:07:53.311Z,3.67
2022-10-29T14:09:15.712Z,3.65
2022-10-29T14:10:22.346Z,3.28
2022-10-29T14:11:26.932Z,3.33
2022-10-29T14:12:31.590Z,3.75
2022-10-29T14:13:36.136Z,3.33
2022-10-29T14:14:43.920Z,3.17
2022-10-29T14:16:04.637Z,3.42
2022-10-29T14:17:17.294Z,3.45
2022-10-29T14:18:24.186Z,3.58
2022-10-29T14:19:27.205Z,3.80
2022-10-29T14:20:29.625Z,3.13
2022-10-29T14:23:11.403Z,4.47
2022-10-29T14:24:15.839Z,3.60
2022-10-29T14:25:35.959Z,3.78
2022-10-29T14:26:39.387Z,3.83
2022-10-29T14:27:42.867Z,3.65
2022-10-29T14:28:50.937Z,3.88
2022-10-29T14:30:18.651Z,3.80
2022-10-29T14:31:22.826Z,3.60
2022-10-29T14:32:28.048Z,3.88
2022-10-29T14:33:42.831Z,3.83
2022-10-29T14:34:58.796Z,3.40
2022-10-29T14:36:05.074Z,4.65
2022-10-29T14:37:09.276Z,3.58
2022-10-29T14:38:11.951Z,3.70